sensor_id;sensor_type;location;lat;lon;timestamp;temperature;humidity
28725;DHT22;43472;48.980;9.646;2023-03-23T00:04:42;11.70;99.90
28725;DHT22;43472;48.980;9.646;2023-03-23T00:09:43;11.60;99.90
28725;DHT22;43472;48.980;9.646;2023-03-23T00:14:43;11.50;99.90
28725;DHT22;43472;48.980;9.646;2023-03-23T00:19:44;11.60;99.90
28725;DHT22;43472;48.980;9.646;2023-03-23T00:24:48;11.70;99.90
28725;DHT22;43472;48.980;9.646;2023-03-23T00:29:52;11.40;99.90
28725;DHT22;43472;48.980;9.646;2023-03-23T00:34:57;11.40;99.90
28725;DHT22;43472;48.980;9.646;2023-03-23T00:40:01;11.40;99.90
28725;DHT22;43472;48.980;9.646;2023-03-23T00:45:02;11.60;99.90
28725;DHT22;43472;48.980;9.646;2023-03-23T00:50:04;11.80;99.90
28725;DHT22;43472;48.980;9.646;2023-03-23T00:55:06;11.80;99.90
28725;DHT22;43472;48.980;9.646;2023-03-23T01:00:07;11.80;99.90
28725;DHT22;43472;48.980;9.646;2023-03-23T01:05:11;12.00;99.90
28725;DHT22;43472;48.980;9.646;2023-03-23T01:10:13;12.10;99.90
28725;DHT22;43472;48.980;9.646;2023-03-23T01:15:17;12.20;99.90
28725;DHT22;43472;48.980;9.646;2023-03-23T01:20:18;12.20;99.90
28725;DHT22;43472;48.980;9.646;2023-03-23T01:25:19;12.50;99.90
28725;DHT22;43472;48.980;9.646;2023-03-23T01:30:20;12.60;99.90
28725;DHT22;43472;48.980;9.646;2023-03-23T01:35:21;12.80;99.90
28725;DHT22;43472;48.980;9.646;2023-03-23T01:40:22;12.80;99.90
28725;DHT22;43472;48.980;9.646;2023-03-23T01:45:27;12.90;99.90
28725;DHT22;43472;48.980;9.646;2023-03-23T01:50:30;12.90;99.90
28725;DHT22;43472;48.980;9.646;2023-03-23T01:55:37;13.00;99.90
28725;DHT22;43472;48.980;9.646;2023-03-23T02:00:39;12.90;99.90
28725;DHT22;43472;48.980;9.646;2023-03-23T02:05:43;12.90;99.90
28725;DHT22;43472;48.980;9.646;2023-03-23T02:10:44;13.10;99.90
28725;DHT22;43472;48.980;9.646;2023-03-23T02:31:50;13.30;99.90
28725;DHT22;43472;48.980;9.646;2023-03-23T02:37:00;13.30;99.90
28725;DHT22;43472;48.980;9.646;2023-03-23T02:42:05;13.20;99.90
28725;DHT22;43472;48.980;9.646;2023-03-23T02:47:11;13.20;99.90
28725;DHT22;43472;48.980;9.646;2023-03-23T02:52:16;13.30;99.90
28725;DHT22;43472;48.980;9.646;2023-03-23T02:57:18;13.40;99.90
28725;DHT22;43472;48.980;9.646;2023-03-23T03:02:31;13.40;99.90
28725;DHT22;43472;48.980;9.646;2023-03-23T03:08:01;13.40;99.90
28725;DHT22;43472;48.980;9.646;2023-03-23T03:13:12;13.60;99.90
28725;DHT22;43472;48.980;9.646;2023-03-23T03:18:27;13.60;99.90
28725;DHT22;43472;48.980;9.646;2023-03-23T03:23:32;13.70;99.90
28725;DHT22;43472;48.980;9.646;2023-03-23T03:28:34;13.80;99.90
28725;DHT22;43472;48.980;9.646;2023-03-23T03:33:35;13.70;99.90
28725;DHT22;43472;48.980;9.646;2023-03-23T03:38:44;13.70;99.90
28725;DHT22;43472;48.980;9.646;2023-03-23T03:43:45;13.70;99.90
28725;DHT22;43472;48.980;9.646;2023-03-23T03:48:46;13.80;99.90
28725;DHT22;43472;48.980;9.646;2023-03-23T03:53:47;13.90;99.90
28725;DHT22;43472;48.980;9.646;2023-03-23T03:58:48;13.90;99.90
28725;DHT22;43472;48.980;9.646;2023-03-23T04:03:51;13.70;99.90
28725;DHT22;43472;48.980;9.646;2023-03-23T04:08:52;13.70;99.90
28725;DHT22;43472;48.980;9.646;2023-03-23T04:13:53;13.80;99.90
28725;DHT22;43472;48.980;9.646;2023-03-23T04:18:53;13.80;99.90
28725;DHT22;43472;48.980;9.646;2023-03-23T04:23:56;13.90;99.90
28725;DHT22;43472;48.980;9.646;2023-03-23T04:28:59;13.80;99.90
28725;DHT22;43472;48.980;9.646;2023-03-23T04:34:00;13.80;99.90
28725;DHT22;43472;48.980;9.646;2023-03-23T04:39:01;13.80;99.90
28725;DHT22;43472;48.980;9.646;2023-03-23T04:44:07;13.80;99.90
28725;DHT22;43472;48.980;9.646;2023-03-23T04:49:08;13.80;99.90
28725;DHT22;43472;48.980;9.646;2023-03-23T04:54:09;14.00;99.90
28725;DHT22;43472;48.980;9.646;2023-03-23T04:59:10;14.00;99.90
28725;DHT22;43472;48.980;9.646;2023-03-23T05:04:13;14.10;99.90
28725;DHT22;43472;48.980;9.646;2023-03-23T05:09:17;14.10;99.90
28725;DHT22;43472;48.980;9.646;2023-03-23T05:14:17;14.10;99.90
28725;DHT22;43472;48.980;9.646;2023-03-23T05:19:18;14.10;99.90
28725;DHT22;43472;48.980;9.646;2023-03-23T05:24:19;14.10;99.90
28725;DHT22;43472;48.980;9.646;2023-03-23T05:29:19;14.10;99.90
28725;DHT22;43472;48.980;9.646;2023-03-23T05:34:21;14.10;99.90
28725;DHT22;43472;48.980;9.646;2023-03-23T05:39:22;14.20;99.90
28725;DHT22;43472;48.980;9.646;2023-03-23T05:44:23;14.20;99.90
28725;DHT22;43472;48.980;9.646;2023-03-23T05:49:24;14.20;99.90
28725;DHT22;43472;48.980;9.646;2023-03-23T05:54:26;14.30;99.90
28725;DHT22;43472;48.980;9.646;2023-03-23T05:59:27;14.30;99.90
28725;DHT22;43472;48.980;9.646;2023-03-23T06:04:28;14.30;99.90
28725;DHT22;43472;48.980;9.646;2023-03-23T06:09:28;14.30;99.90
28725;DHT22;43472;48.980;9.646;2023-03-23T06:14:29;14.20;99.90
28725;DHT22;43472;48.980;9.646;2023-03-23T06:19:30;14.30;99.90
28725;DHT22;43472;48.980;9.646;2023-03-23T06:24:30;14.40;99.90
28725;DHT22;43472;48.980;9.646;2023-03-23T06:29:33;14.40;99.90
28725;DHT22;43472;48.980;9.646;2023-03-23T06:34:33;14.40;99.90
28725;DHT22;43472;48.980;9.646;2023-03-23T06:39:34;14.40;99.90
28725;DHT22;43472;48.980;9.646;2023-03-23T06:44:36;14.30;99.90
28725;DHT22;43472;48.980;9.646;2023-03-23T06:49:37;13.90;99.90
28725;DHT22;43472;48.980;9.646;2023-03-23T06:59:39;14.10;99.90
28725;DHT22;43472;48.980;9.646;2023-03-23T07:04:41;14.00;99.90
28725;DHT22;43472;48.980;9.646;2023-03-23T07:09:42;13.80;99.90
28725;DHT22;43472;48.980;9.646;2023-03-23T07:14:42;13.80;99.90
28725;DHT22;43472;48.980;9.646;2023-03-23T07:19:44;14.00;99.90
28725;DHT22;43472;48.980;9.646;2023-03-23T07:24:45;14.00;99.90
28725;DHT22;43472;48.980;9.646;2023-03-23T07:29:46;14.10;99.90
28725;DHT22;43472;48.980;9.646;2023-03-23T07:39:47;14.30;99.90
28725;DHT22;43472;48.980;9.646;2023-03-23T07:44:48;14.20;99.90
28725;DHT22;43472;48.980;9.646;2023-03-23T07:49:49;14.10;99.90
28725;DHT22;43472;48.980;9.646;2023-03-23T07:54:50;13.90;99.90
28725;DHT22;43472;48.980;9.646;2023-03-23T07:59:51;13.80;99.90
28725;DHT22;43472;48.980;9.646;2023-03-23T08:04:52;14.10;99.90
28725;DHT22;43472;48.980;9.646;2023-03-23T08:09:54;14.20;99.90
28725;DHT22;43472;48.980;9.646;2023-03-23T08:14:54;14.40;99.90
28725;DHT22;43472;48.980;9.646;2023-03-23T08:19:55;14.50;99.90
28725;DHT22;43472;48.980;9.646;2023-03-23T08:24:56;14.80;99.90
28725;DHT22;43472;48.980;9.646;2023-03-23T08:29:56;15.00;99.90
28725;DHT22;43472;48.980;9.646;2023-03-23T08:34:58;15.40;99.90
28725;DHT22;43472;48.980;9.646;2023-03-23T08:39:58;15.60;99.90
28725;DHT22;43472;48.980;9.646;2023-03-23T08:44:59;15.50;99.90
28725;DHT22;43472;48.980;9.646;2023-03-23T08:50:01;15.50;99.90
28725;DHT22;43472;48.980;9.646;2023-03-23T08:55:02;15.40;99.90
28725;DHT22;43472;48.980;9.646;2023-03-23T09:00:06;15.70;99.90
28725;DHT22;43472;48.980;9.646;2023-03-23T09:05:20;15.60;99.90
28725;DHT22;43472;48.980;9.646;2023-03-23T09:10:22;15.40;99.90
28725;DHT22;43472;48.980;9.646;2023-03-23T09:15:24;15.20;99.90
28725;DHT22;43472;48.980;9.646;2023-03-23T09:20:27;15.00;99.90
28725;DHT22;43472;48.980;9.646;2023-03-23T09:25:28;15.00;99.90
28725;DHT22;43472;48.980;9.646;2023-03-23T09:30:31;15.00;99.90
28725;DHT22;43472;48.980;9.646;2023-03-23T09:40:50;15.00;99.90
28725;DHT22;43472;48.980;9.646;2023-03-23T09:56:38;15.20;99.90
28725;DHT22;43472;48.980;9.646;2023-03-23T10:01:47;15.30;99.90
28725;DHT22;43472;48.980;9.646;2023-03-23T10:06:48;15.30;99.90
28725;DHT22;43472;48.980;9.646;2023-03-23T10:11:56;15.40;99.90
28725;DHT22;43472;48.980;9.646;2023-03-23T10:17:13;15.20;99.90
28725;DHT22;43472;48.980;9.646;2023-03-23T10:22:17;15.20;99.90
28725;DHT22;43472;48.980;9.646;2023-03-23T10:32:43;15.40;99.90
28725;DHT22;43472;48.980;9.646;2023-03-23T10:37:49;15.30;99.90
28725;DHT22;43472;48.980;9.646;2023-03-23T10:42:51;15.20;99.90
28725;DHT22;43472;48.980;9.646;2023-03-23T10:47:56;15.00;99.90
28725;DHT22;43472;48.980;9.646;2023-03-23T10:53:01;15.20;99.90
28725;DHT22;43472;48.980;9.646;2023-03-23T10:58:07;15.80;99.90
28725;DHT22;43472;48.980;9.646;2023-03-23T11:08:20;15.80;99.90
28725;DHT22;43472;48.980;9.646;2023-03-23T11:13:27;14.80;99.90
28725;DHT22;43472;48.980;9.646;2023-03-23T11:18:40;16.20;99.90
28725;DHT22;43472;48.980;9.646;2023-03-23T11:23:48;17.90;99.90
28725;DHT22;43472;48.980;9.646;2023-03-23T11:28:59;16.30;99.90
28725;DHT22;43472;48.980;9.646;2023-03-23T11:34:03;16.50;99.90
28725;DHT22;43472;48.980;9.646;2023-03-23T11:39:30;16.30;99.90
28725;DHT22;43472;48.980;9.646;2023-03-23T11:44:40;15.60;99.90
28725;DHT22;43472;48.980;9.646;2023-03-23T11:55:03;15.50;99.90
28725;DHT22;43472;48.980;9.646;2023-03-23T12:00:17;15.60;99.90
28725;DHT22;43472;48.980;9.646;2023-03-23T12:05:32;15.60;99.90
28725;DHT22;43472;48.980;9.646;2023-03-23T12:16:27;15.90;99.90
28725;DHT22;43472;48.980;9.646;2023-03-23T12:48:00;15.90;99.90
28725;DHT22;43472;48.980;9.646;2023-03-23T12:53:11;16.10;99.90
28725;DHT22;43472;48.980;9.646;2023-03-23T13:03:28;15.90;99.90
28725;DHT22;43472;48.980;9.646;2023-03-23T13:08:41;15.80;99.90
28725;DHT22;43472;48.980;9.646;2023-03-23T13:13:52;16.10;99.90
28725;DHT22;43472;48.980;9.646;2023-03-23T13:24:15;16.10;99.90
28725;DHT22;43472;48.980;9.646;2023-03-23T13:29:21;16.20;99.90
28725;DHT22;43472;48.980;9.646;2023-03-23T13:34:29;16.20;99.90
28725;DHT22;43472;48.980;9.646;2023-03-23T13:39:35;16.40;99.90
28725;DHT22;43472;48.980;9.646;2023-03-23T13:50:43;16.70;99.90
28725;DHT22;43472;48.980;9.646;2023-03-23T13:55:48;16.60;99.90
28725;DHT22;43472;48.980;9.646;2023-03-23T14:01:11;16.40;99.90
28725;DHT22;43472;48.980;9.646;2023-03-23T14:06:22;16.50;99.90
28725;DHT22;43472;48.980;9.646;2023-03-23T14:11:27;16.60;99.90
28725;DHT22;43472;48.980;9.646;2023-03-23T14:16:39;16.50;99.90
28725;DHT22;43472;48.980;9.646;2023-03-23T14:21:44;16.40;99.90
28725;DHT22;43472;48.980;9.646;2023-03-23T14:26:50;16.50;99.90
28725;DHT22;43472;48.980;9.646;2023-03-23T14:31:55;16.50;99.90
28725;DHT22;43472;48.980;9.646;2023-03-23T14:36:57;16.40;99.90
28725;DHT22;43472;48.980;9.646;2023-03-23T14:42:12;16.50;99.90
28725;DHT22;43472;48.980;9.646;2023-03-23T14:47:20;16.30;99.90
28725;DHT22;43472;48.980;9.646;2023-03-23T14:52:24;16.50;99.90
28725;DHT22;43472;48.980;9.646;2023-03-23T14:57:28;16.40;99.90
28725;DHT22;43472;48.980;9.646;2023-03-23T15:02:36;16.30;99.90
28725;DHT22;43472;48.980;9.646;2023-03-23T15:07:41;16.20;99.90
28725;DHT22;43472;48.980;9.646;2023-03-23T15:12:45;16.10;99.90
28725;DHT22;43472;48.980;9.646;2023-03-23T15:17:46;16.10;99.90
28725;DHT22;43472;48.980;9.646;2023-03-23T15:22:48;16.20;99.90
28725;DHT22;43472;48.980;9.646;2023-03-23T15:27:54;16.10;99.90
28725;DHT22;43472;48.980;9.646;2023-03-23T15:33:02;15.90;99.90
28725;DHT22;43472;48.980;9.646;2023-03-23T15:38:06;15.80;99.90
28725;DHT22;43472;48.980;9.646;2023-03-23T15:48:17;15.70;99.90
28725;DHT22;43472;48.980;9.646;2023-03-23T15:53:31;15.60;99.90
28725;DHT22;43472;48.980;9.646;2023-03-23T15:58:33;15.60;99.90
28725;DHT22;43472;48.980;9.646;2023-03-23T16:03:55;15.60;99.90
28725;DHT22;43472;48.980;9.646;2023-03-23T16:08:58;15.40;99.90
28725;DHT22;43472;48.980;9.646;2023-03-23T16:14:01;15.30;99.90
28725;DHT22;43472;48.980;9.646;2023-03-23T16:19:03;15.30;99.90
28725;DHT22;43472;48.980;9.646;2023-03-23T16:24:07;15.20;99.90
28725;DHT22;43472;48.980;9.646;2023-03-23T16:29:14;15.20;99.90
28725;DHT22;43472;48.980;9.646;2023-03-23T16:34:36;15.20;99.90
28725;DHT22;43472;48.980;9.646;2023-03-23T16:39:39;15.10;99.90
28725;DHT22;43472;48.980;9.646;2023-03-23T16:44:41;15.10;99.90
28725;DHT22;43472;48.980;9.646;2023-03-23T16:49:43;15.10;99.90
28725;DHT22;43472;48.980;9.646;2023-03-23T16:54:45;15.00;99.90
28725;DHT22;43472;48.980;9.646;2023-03-23T16:59:47;15.00;99.90
28725;DHT22;43472;48.980;9.646;2023-03-23T17:04:49;14.90;99.90
28725;DHT22;43472;48.980;9.646;2023-03-23T17:09:51;14.80;99.90
28725;DHT22;43472;48.980;9.646;2023-03-23T17:14:53;14.70;99.90
28725;DHT22;43472;48.980;9.646;2023-03-23T17:19:55;14.80;99.90
28725;DHT22;43472;48.980;9.646;2023-03-23T17:24:57;15.00;99.90
28725;DHT22;43472;48.980;9.646;2023-03-23T17:29:59;15.00;99.90
28725;DHT22;43472;48.980;9.646;2023-03-23T17:35:03;15.00;99.90
28725;DHT22;43472;48.980;9.646;2023-03-23T17:40:07;15.10;99.90
28725;DHT22;43472;48.980;9.646;2023-03-23T17:45:10;15.10;99.90
28725;DHT22;43472;48.980;9.646;2023-03-23T17:50:12;15.00;99.90
28725;DHT22;43472;48.980;9.646;2023-03-23T17:55:15;15.10;99.90
28725;DHT22;43472;48.980;9.646;2023-03-23T18:00:18;15.10;99.90
28725;DHT22;43472;48.980;9.646;2023-03-23T18:05:20;15.20;99.90
28725;DHT22;43472;48.980;9.646;2023-03-23T18:10:22;15.20;99.90
28725;DHT22;43472;48.980;9.646;2023-03-23T18:15:24;15.20;99.90
28725;DHT22;43472;48.980;9.646;2023-03-23T18:20:30;15.20;99.90
28725;DHT22;43472;48.980;9.646;2023-03-23T18:25:32;15.30;99.90
28725;DHT22;43472;48.980;9.646;2023-03-23T18:30:34;15.20;99.90
28725;DHT22;43472;48.980;9.646;2023-03-23T18:35:36;15.10;99.90
28725;DHT22;43472;48.980;9.646;2023-03-23T18:40:45;15.10;99.90
28725;DHT22;43472;48.980;9.646;2023-03-23T18:45:54;15.20;99.90
28725;DHT22;43472;48.980;9.646;2023-03-23T18:50:58;15.20;99.90
28725;DHT22;43472;48.980;9.646;2023-03-23T18:56:11;15.20;99.90
28725;DHT22;43472;48.980;9.646;2023-03-23T19:01:16;15.20;99.90
28725;DHT22;43472;48.980;9.646;2023-03-23T19:06:23;15.20;99.90
28725;DHT22;43472;48.980;9.646;2023-03-23T19:11:25;15.10;99.90
28725;DHT22;43472;48.980;9.646;2023-03-23T19:16:32;15.20;99.90
28725;DHT22;43472;48.980;9.646;2023-03-23T19:21:37;15.20;99.90
28725;DHT22;43472;48.980;9.646;2023-03-23T19:26:42;15.20;99.90
28725;DHT22;43472;48.980;9.646;2023-03-23T19:31:44;15.30;99.90
28725;DHT22;43472;48.980;9.646;2023-03-23T19:36:48;15.30;99.90
28725;DHT22;43472;48.980;9.646;2023-03-23T19:41:56;15.30;99.90
28725;DHT22;43472;48.980;9.646;2023-03-23T19:46:58;15.40;99.90
28725;DHT22;43472;48.980;9.646;2023-03-23T19:52:01;15.40;99.90
28725;DHT22;43472;48.980;9.646;2023-03-23T19:57:12;15.40;99.90
28725;DHT22;43472;48.980;9.646;2023-03-23T20:02:15;15.40;99.90
28725;DHT22;43472;48.980;9.646;2023-03-23T20:07:17;15.40;99.90
28725;DHT22;43472;48.980;9.646;2023-03-23T20:12:21;15.50;99.90
28725;DHT22;43472;48.980;9.646;2023-03-23T20:17:24;15.40;99.90
28725;DHT22;43472;48.980;9.646;2023-03-23T20:22:26;15.50;99.90
28725;DHT22;43472;48.980;9.646;2023-03-23T20:27:29;15.50;99.90
28725;DHT22;43472;48.980;9.646;2023-03-23T20:32:31;15.50;99.90
28725;DHT22;43472;48.980;9.646;2023-03-23T20:37:35;15.50;99.90
28725;DHT22;43472;48.980;9.646;2023-03-23T20:42:38;15.60;99.90
28725;DHT22;43472;48.980;9.646;2023-03-23T20:47:44;15.50;99.90
28725;DHT22;43472;48.980;9.646;2023-03-23T20:52:47;15.60;99.90
28725;DHT22;43472;48.980;9.646;2023-03-23T20:57:48;15.50;99.90
28725;DHT22;43472;48.980;9.646;2023-03-23T21:02:50;15.60;99.90
28725;DHT22;43472;48.980;9.646;2023-03-23T21:07:54;15.50;99.90
28725;DHT22;43472;48.980;9.646;2023-03-23T21:12:58;15.50;99.90
28725;DHT22;43472;48.980;9.646;2023-03-23T21:18:01;15.50;99.90
28725;DHT22;43472;48.980;9.646;2023-03-23T21:23:04;15.50;99.90
28725;DHT22;43472;48.980;9.646;2023-03-23T21:28:08;15.50;99.90
28725;DHT22;43472;48.980;9.646;2023-03-23T21:33:11;15.50;99.90
28725;DHT22;43472;48.980;9.646;2023-03-23T21:38:14;15.50;99.90
28725;DHT22;43472;48.980;9.646;2023-03-23T21:43:15;15.40;99.90
28725;DHT22;43472;48.980;9.646;2023-03-23T21:48:18;15.50;99.90
28725;DHT22;43472;48.980;9.646;2023-03-23T21:53:22;15.30;99.90
28725;DHT22;43472;48.980;9.646;2023-03-23T21:58:26;15.30;99.90
28725;DHT22;43472;48.980;9.646;2023-03-23T22:03:29;15.20;99.90
28725;DHT22;43472;48.980;9.646;2023-03-23T22:08:34;15.00;99.90
28725;DHT22;43472;48.980;9.646;2023-03-23T22:13:37;14.90;99.90
28725;DHT22;43472;48.980;9.646;2023-03-23T22:18:40;14.90;99.90
28725;DHT22;43472;48.980;9.646;2023-03-23T22:23:44;14.80;99.90
28725;DHT22;43472;48.980;9.646;2023-03-23T22:28:47;14.60;99.90
28725;DHT22;43472;48.980;9.646;2023-03-23T22:33:52;14.50;99.90
28725;DHT22;43472;48.980;9.646;2023-03-23T22:38:57;14.40;99.90
28725;DHT22;43472;48.980;9.646;2023-03-23T22:43:59;14.30;99.90
28725;DHT22;43472;48.980;9.646;2023-03-23T22:49:02;14.10;99.90
28725;DHT22;43472;48.980;9.646;2023-03-23T22:54:05;14.00;99.90
28725;DHT22;43472;48.980;9.646;2023-03-23T22:59:07;13.80;99.90
28725;DHT22;43472;48.980;9.646;2023-03-23T23:04:09;14.00;99.90
28725;DHT22;43472;48.980;9.646;2023-03-23T23:09:11;13.90;99.90
28725;DHT22;43472;48.980;9.646;2023-03-23T23:14:14;13.80;99.90
28725;DHT22;43472;48.980;9.646;2023-03-23T23:19:16;13.80;99.90
28725;DHT22;43472;48.980;9.646;2023-03-23T23:24:18;13.70;99.90
28725;DHT22;43472;48.980;9.646;2023-03-23T23:29:20;13.70;99.90
28725;DHT22;43472;48.980;9.646;2023-03-23T23:34:22;13.50;99.90
28725;DHT22;43472;48.980;9.646;2023-03-23T23:39:24;13.50;99.90
28725;DHT22;43472;48.980;9.646;2023-03-23T23:44:28;13.50;99.90
28725;DHT22;43472;48.980;9.646;2023-03-23T23:49:30;13.30;99.90
28725;DHT22;43472;48.980;9.646;2023-03-23T23:54:35;13.20;99.90
28725;DHT22;43472;48.980;9.646;2023-03-23T23:59:38;13.20;99.90
